Time;durP1;ratioP1;P1;durP2;ratioP2;P2;SDS_P1;SDS_P2;PMS_P1;PMS_P2;Temp;Humidity;BMP_temperature;BMP_pressure;BME280_temperature;BME280_humidity;BME280_pressure;Samples;Min_cycle;Max_cycle;Signal;HPM_P1;HPM_P2
2022/03/27 00:01:07;;;;;;;9.50;2.00;;;;;;;2.66;54.09;103298.00;5004494;28;20464;-81
2022/03/27 00:03:33;;;;;;;4.32;1.05;;;;;;;2.80;53.77;103302.72;5022630;28;20402;-81
2022/03/27 00:05:59;;;;;;;5.97;1.40;;;;;;;2.74;53.59;103303.44;5016057;28;20021;-79
2022/03/27 00:08:24;;;;;;;6.45;1.65;;;;;;;2.81;53.58;103297.63;5022374;28;20044;-81
2022/03/27 00:13:34;;;;;;;9.00;1.55;;;;;;;2.77;53.36;103298.34;5041125;28;20041;-79
2022/03/27 00:15:59;;;;;;;5.30;1.67;;;;;;;2.65;53.80;103309.19;5037995;28;20033;-80
2022/03/27 00:18:25;;;;;;;5.72;1.35;;;;;;;2.69;53.30;103305.88;5040416;28;20061;-77
2022/03/27 00:20:53;;;;;;;6.82;1.60;;;;;;;2.76;53.29;103300.06;5019945;28;20486;-80
2022/03/27 00:23:19;;;;;;;11.98;1.80;;;;;;;2.66;53.48;103294.56;5037286;28;20029;-82
2022/03/27 00:25:45;;;;;;;10.80;2.53;;;;;;;2.66;53.23;103289.38;5018833;28;20465;-80
2022/03/27 00:28:11;;;;;;;9.43;2.22;;;;;;;2.46;53.42;103281.00;5036892;28;20123;-80
2022/03/27 00:30:38;;;;;;;10.77;2.33;;;;;;;2.40;53.78;103286.84;5008118;28;20040;-79
2022/03/27 00:33:04;;;;;;;14.88;2.47;;;;;;;2.36;53.59;103295.31;4999748;28;20407;-81
2022/03/27 00:35:30;;;;;;;6.22;2.13;;;;;;;2.44;53.65;103290.41;5041404;28;20039;-78
2022/03/27 00:37:56;;;;;;;11.15;2.45;;;;;;;2.45;53.55;103280.13;5040278;28;20399;-80
2022/03/27 00:40:21;;;;;;;7.70;1.95;;;;;;;2.47;53.54;103282.78;5037389;28;20094;-81
2022/03/27 00:42:47;;;;;;;11.38;1.77;;;;;;;2.31;54.23;103282.25;5034984;28;20037;-80
2022/03/27 00:45:12;;;;;;;22.23;3.50;;;;;;;2.26;54.31;103288.94;5037339;28;20037;-81
2022/03/27 00:47:38;;;;;;;18.55;2.95;;;;;;;2.31;54.46;103286.53;5036023;28;20248;-79
2022/03/27 00:50:05;;;;;;;17.63;2.72;;;;;;;2.34;54.34;103281.50;5021149;28;20039;-80
2022/03/27 00:52:30;;;;;;;16.35;3.53;;;;;;;2.32;54.55;103277.97;5036715;28;20056;-76
2022/03/27 00:54:56;;;;;;;17.95;3.05;;;;;;;2.39;54.63;103281.63;5019835;28;20479;-79
2022/03/27 00:57:22;;;;;;;13.93;3.60;;;;;;;2.35;54.98;103284.13;5037631;28;20040;-79
2022/03/27 00:59:48;;;;;;;16.60;3.65;;;;;;;2.40;54.98;103280.78;5022840;28;20040;-81
2022/03/27 01:02:14;;;;;;;17.52;3.55;;;;;;;2.44;54.98;103283.53;5040612;28;20047;-82
2022/03/27 01:04:44;;;;;;;13.68;2.47;;;;;;;2.52;54.92;103279.50;5040784;28;20385;-80
2022/03/27 01:07:18;;;;;;;17.48;3.63;;;;;;;2.56;54.64;103283.06;5035768;28;20041;-81
2022/03/27 01:09:45;;;;;;;21.50;4.32;;;;;;;2.49;54.30;103283.69;5044165;28;20033;-80
2022/03/27 01:12:17;;;;;;;13.20;5.35;;;;;;;2.40;54.46;103280.78;5024527;28;20707;-79
2022/03/27 01:14:47;;;;;;;18.60;5.05;;;;;;;2.54;54.31;103276.97;5025815;28;20123;-80
2022/03/27 01:17:18;;;;;;;27.63;6.35;;;;;;;2.40;54.42;103280.78;5040779;28;20120;-79
2022/03/27 01:19:49;;;;;;;12.25;4.57;;;;;;;2.30;54.24;103280.50;5041884;28;20064;-81
2022/03/27 01:22:16;;;;;;;14.82;3.17;;;;;;;2.35;54.18;103276.38;5008344;28;20071;-79
2022/03/27 01:24:42;;;;;;;10.75;3.08;;;;;;;2.32;54.23;103281.44;5022661;28;20036;-79
2022/03/27 01:27:08;;;;;;;5.78;1.98;;;;;;;2.30;53.88;103279.63;5019406;28;20151;-79
2022/03/27 01:29:34;;;;;;;12.20;2.70;;;;;;;2.27;54.22;103279.53;5027329;28;20120;-79
2022/03/27 01:32:01;;;;;;;7.20;1.67;;;;;;;2.14;54.05;103283.41;5019101;28;20060;-78
2022/03/27 01:34:28;;;;;;;9.30;1.08;;;;;;;2.20;54.29;103282.72;5024799;28;20045;-79
2022/03/27 01:36:54;;;;;;;8.48;1.10;;;;;;;2.18;54.28;103285.25;5039245;28;20086;-80
2022/03/27 01:39:19;;;;;;;6.40;1.35;;;;;;;2.29;54.24;103278.75;5012376;28;20265;-78
2022/03/27 01:41:45;;;;;;;7.97;1.27;;;;;;;2.38;54.03;103285.03;5027371;28;20179;-81
2022/03/27 01:44:16;;;;;;;13.60;2.17;;;;;;;2.42;53.68;103279.13;5028175;28;20049;-79
2022/03/27 01:46:43;;;;;;;9.73;1.55;;;;;;;2.46;53.63;103273.25;5026192;28;20033;-82
2022/03/27 01:49:10;;;;;;;15.77;2.80;;;;;;;2.34;53.32;103284.94;5022977;28;20041;-80
2022/03/27 01:51:37;;;;;;;14.48;1.58;;;;;;;2.35;53.67;103284.13;5039550;28;20044;-79
2022/03/27 01:54:04;;;;;;;8.65;1.42;;;;;;;2.31;53.67;103282.25;5006456;28;20330;-79
2022/03/27 01:56:30;;;;;;;18.55;3.50;;;;;;;2.47;53.67;103269.88;5040667;28;20032;-81
2022/03/27 01:58:56;;;;;;;11.05;1.80;;;;;;;2.45;53.46;103268.94;5038766;28;20048;-79
2022/03/27 02:01:21;;;;;;;12.85;1.25;;;;;;;2.42;53.35;103268.81;5021064;28;20041;-79
2022/03/27 02:03:48;;;;;;;13.90;2.40;;;;;;;2.40;53.43;103270.47;5005341;28;20044;-81
2022/03/27 02:06:13;;;;;;;15.85;2.08;;;;;;;2.49;53.45;103265.63;5021324;28;20040;-81
2022/03/27 02:08:40;;;;;;;12.77;2.28;;;;;;;2.45;53.55;103261.19;5024821;28;20038;-81
2022/03/27 02:11:06;;;;;;;18.38;3.00;;;;;;;2.56;53.53;103267.56;5024595;28;20493;-78
2022/03/27 02:13:32;;;;;;;9.73;2.03;;;;;;;2.52;53.41;103273.47;5038721;28;20049;-80
2022/03/27 02:15:58;;;;;;;15.40;1.42;;;;;;;2.55;53.55;103265.81;5022130;28;20132;-79
2022/03/27 02:18:29;;;;;;;24.48;3.35;;;;;;;2.55;53.20;103266.69;5023857;28;20134;-82
2022/03/27 02:20:55;;;;;;;9.43;2.20;;;;;;;2.47;53.39;103280.19;5039195;28;20467;-80
2022/03/27 02:23:22;;;;;;;14.88;1.52;;;;;;;2.44;53.40;103272.31;5023550;28;20033;-81
2022/03/27 02:25:48;;;;;;;13.13;1.48;;;;;;;2.49;53.21;103273.38;5024222;28;20037;-81
2022/03/27 02:28:13;;;;;;;10.80;1.90;;;;;;;2.42;53.47;103273.97;5023098;28;20065;-81
2022/03/27 02:30:39;;;;;;;18.38;3.38;;;;;;;2.52;53.29;103265.72;5038807;28;20491;-80
2022/03/27 02:33:05;;;;;;;10.13;1.42;;;;;;;2.49;53.33;103265.63;5023010;28;20303;-77
2022/03/27 02:35:30;;;;;;;16.65;2.15;;;;;;;2.59;53.04;103270.25;5022457;28;20036;-79
2022/03/27 02:37:56;;;;;;;19.20;3.40;;;;;;;2.44;52.90;103259.41;5021537;28;20044;-81
2022/03/27 02:40:21;;;;;;;18.27;1.55;;;;;;;2.35;53.17;103272.91;5039071;28;20057;-79
2022/03/27 02:42:48;;;;;;;11.23;1.25;;;;;;;2.36;53.03;103266.94;5015345;28;20051;-80
2022/03/27 02:45:13;;;;;;;10.85;2.15;;;;;;;2.29;53.36;103264.97;5022396;28;20524;-80
2022/03/27 02:47:39;;;;;;;8.98;1.45;;;;;;;2.22;53.21;103266.47;5036227;28;20032;-81
2022/03/27 02:50:05;;;;;;;9.48;2.05;;;;;;;2.32;53.06;103265.94;5038200;28;20483;-81
2022/03/27 02:52:32;;;;;;;11.80;2.38;;;;;;;2.21;52.68;103263.84;5022025;28;20524;-79
2022/03/27 02:54:58;;;;;;;13.77;2.22;;;;;;;2.13;52.94;103267.06;5025513;28;20029;-80
2022/03/27 02:57:24;;;;;;;10.38;1.67;;;;;;;2.15;52.99;103254.19;5021186;28;20048;-82
2022/03/27 02:59:52;;;;;;;8.45;1.35;;;;;;;2.02;52.71;103263.22;5021315;28;20418;-81
2022/03/27 03:02:18;;;;;;;8.50;2.28;;;;;;;1.94;52.83;103260.38;5021656;28;20144;-79
2022/03/27 03:04:44;;;;;;;10.60;2.30;;;;;;;1.87;52.67;103265.28;5038320;28;20537;-80
2022/03/27 03:07:10;;;;;;;4.68;1.15;;;;;;;1.69;53.17;103260.34;5028253;28;20257;-80
2022/03/27 03:09:36;;;;;;;3.05;0.73;;;;;;;1.59;53.07;103266.00;5049763;28;20053;-82
2022/03/27 03:12:02;;;;;;;11.98;1.15;;;;;;;1.58;53.06;103264.25;5019155;28;20033;-81
2022/03/27 03:14:28;;;;;;;9.82;1.33;;;;;;;1.49;53.27;103260.50;5038468;28;20063;-79
2022/03/27 03:16:54;;;;;;;8.95;1.30;;;;;;;1.37;53.49;103249.72;5038237;28;20033;-80
2022/03/27 03:19:19;;;;;;;14.27;1.38;;;;;;;1.35;53.34;103255.63;5038217;28;20029;-81
2022/03/27 03:21:45;;;;;;;12.02;1.60;;;;;;;1.32;53.38;103258.97;5026424;28;20056;-79
2022/03/27 03:24:11;;;;;;;5.68;1.35;;;;;;;1.41;53.57;103261.06;5020704;28;20041;-79
2022/03/27 03:26:36;;;;;;;7.80;1.02;;;;;;;1.45;53.77;103250.03;5039690;28;20195;-81
2022/03/27 03:29:02;;;;;;;4.90;1.58;;;;;;;1.51;53.44;103251.16;5013363;28;20044;-79
2022/03/27 03:31:28;;;;;;;17.58;1.92;;;;;;;1.69;53.38;103250.03;5039710;28;20029;-81
2022/03/27 03:33:53;;;;;;;12.07;2.67;;;;;;;1.74;53.41;103248.50;5034889;28;20048;-81
2022/03/27 03:36:19;;;;;;;25.17;3.63;;;;;;;1.64;53.17;103243.81;5038043;28;20044;-80
2022/03/27 03:38:45;;;;;;;28.65;3.80;;;;;;;1.59;53.47;103242.78;5038698;28;20401;-82
2022/03/27 03:41:10;;;;;;;27.08;4.65;;;;;;;1.50;53.19;103246.78;5037259;28;20032;-81
2022/03/27 03:43:36;;;;;;;25.50;4.07;;;;;;;1.39;53.15;103242.91;5036731;28;20044;-81
2022/03/27 03:46:05;;;;;;;29.02;4.65;;;;;;;1.50;53.46;103243.34;5020195;28;20562;-79
2022/03/27 03:48:31;;;;;;;41.00;5.25;;;;;;;1.58;53.35;103238.47;5037790;28;20285;-79
2022/03/27 03:50:57;;;;;;;33.72;5.15;;;;;;;1.52;53.02;103234.84;5022007;28;20086;-79
2022/03/27 03:53:24;;;;;;;25.77;4.40;;;;;;;1.37;53.22;103239.41;5019794;28;20040;-79
2022/03/27 03:55:50;;;;;;;25.83;4.32;;;;;;;1.55;53.02;103236.69;5019747;28;20042;-80
2022/03/27 03:58:16;;;;;;;24.30;4.55;;;;;;;1.34;53.25;103247.03;5037515;28;20065;-81
2022/03/27 04:00:42;;;;;;;14.48;3.25;;;;;;;1.20;53.22;103246.53;5023574;28;20091;-80
2022/03/27 04:03:11;;;;;;;19.80;3.25;;;;;;;1.31;53.40;103245.22;5016805;28;20056;-80
2022/03/27 04:05:36;;;;;;;27.05;3.70;;;;;;;1.26;53.06;103251.03;5018850;28;20048;-80
2022/03/27 04:08:02;;;;;;;11.52;2.40;;;;;;;1.32;53.48;103246.09;5000123;28;20444;-80
2022/03/27 04:10:28;;;;;;;21.50;3.50;;;;;;;1.43;53.30;103246.53;5036541;28;20033;-82
2022/03/27 04:12:53;;;;;;;19.48;2.50;;;;;;;1.28;53.23;103246.81;5019068;28;20503;-81
2022/03/27 04:15:19;;;;;;;17.67;4.07;;;;;;;1.40;53.49;103248.97;5020136;28;20072;-79
2022/03/27 04:17:45;;;;;;;10.18;2.30;;;;;;;1.38;52.85;103246.34;5023055;28;20410;-81
2022/03/27 04:20:12;;;;;;;26.38;2.90;;;;;;;1.14;53.09;103255.72;5024522;28;20419;-80
2022/03/27 04:22:40;;;;;;;20.20;2.53;;;;;;;1.15;53.74;103244.59;5017587;28;20453;-80
2022/03/27 04:25:06;;;;;;;14.02;3.85;;;;;;;1.15;53.82;103249.75;5021519;28;20032;-81
2022/03/27 04:27:32;;;;;;;23.70;2.33;;;;;;;1.22;53.45;103252.63;5019550;28;20124;-79
2022/03/27 04:29:57;;;;;;;17.50;2.75;;;;;;;1.19;53.64;103251.63;5025423;28;20562;-78
2022/03/27 04:32:23;;;;;;;4.93;1.75;;;;;;;1.16;53.31;103248.94;5023055;28;20040;-78
2022/03/27 04:34:50;;;;;;;17.75;1.88;;;;;;;1.10;52.85;103239.28;5024381;28;20521;-79
2022/03/27 04:37:18;;;;;;;8.15;2.25;;;;;;;1.07;53.66;103244.31;5023705;28;20047;-78
2022/03/27 04:39:44;;;;;;;14.45;2.03;;;;;;;1.01;53.55;103250.09;5024484;28;20543;-80
2022/03/27 04:42:09;;;;;;;7.47;2.40;;;;;;;0.97;53.32;103239.63;5041027;28;20394;-79
2022/03/27 04:44:35;;;;;;;6.38;1.50;;;;;;;0.82;53.39;103247.66;5041962;28;20387;-80
2022/03/27 04:47:01;;;;;;;8.00;2.35;;;;;;;0.81;53.57;103251.03;5023565;28;20062;-79
2022/03/27 04:49:27;;;;;;;10.10;1.63;;;;;;;0.86;53.77;103250.41;5026050;28;20036;-79
2022/03/27 04:51:52;;;;;;;10.85;2.95;;;;;;;0.94;53.50;103250.69;5040549;28;20029;-79
2022/03/27 04:54:18;;;;;;;9.75;1.65;;;;;;;0.93;53.54;103254.09;5026131;28;20395;-79
2022/03/27 04:56:44;;;;;;;7.13;1.95;;;;;;;0.75;53.46;103246.53;5037932;28;20128;-81
2022/03/27 04:59:10;;;;;;;9.50;1.77;;;;;;;0.67;53.82;103242.78;5040192;28;20039;-78
2022/03/27 05:01:36;;;;;;;14.93;1.95;;;;;;;0.66;54.17;103251.34;5042727;28;20033;-80
2022/03/27 05:04:02;;;;;;;8.30;1.98;;;;;;;0.74;53.80;103254.19;5023650;28;20494;-78
2022/03/27 05:06:29;;;;;;;7.05;1.60;;;;;;;0.79;53.64;103247.53;5023852;28;20387;-80
2022/03/27 05:08:58;;;;;;;4.40;1.90;;;;;;;0.79;53.78;103243.28;5023416;28;20483;-81
2022/03/27 05:11:25;;;;;;;6.95;1.90;;;;;;;0.87;53.73;103246.13;5050879;28;20063;-82
2022/03/27 05:13:51;;;;;;;10.15;1.88;;;;;;;0.72;53.15;103250.69;5022815;28;20045;-79
2022/03/27 05:16:16;;;;;;;4.50;1.73;;;;;;;0.52;53.56;103255.91;5026341;28;20029;-79
2022/03/27 05:18:42;;;;;;;5.60;1.65;;;;;;;0.48;53.83;103252.34;5021127;28;20076;-81
2022/03/27 05:21:07;;;;;;;12.40;2.05;;;;;;;0.44;53.61;103244.47;5024713;28;20032;-81
2022/03/27 05:23:34;;;;;;;8.05;2.10;;;;;;;0.44;54.05;103253.03;5023319;28;20031;-81
2022/03/27 05:26:00;;;;;;;11.13;2.30;;;;;;;0.23;54.54;103253.06;5023646;28;20028;-81
2022/03/27 05:28:26;;;;;;;8.48;1.75;;;;;;;0.17;54.56;103255.38;5024062;28;20036;-80
2022/03/27 05:30:52;;;;;;;12.25;1.30;;;;;;;0.33;54.20;103254.31;5024783;28;20145;-81
2022/03/27 05:33:18;;;;;;;1.92;1.20;;;;;;;0.47;53.78;103242.88;5025147;28;20487;-81
2022/03/27 05:35:44;;;;;;;5.00;1.42;;;;;;;0.46;53.80;103259.13;5026020;28;20029;-79
2022/03/27 05:38:10;;;;;;;4.57;1.80;;;;;;;0.55;54.11;103262.91;5012610;28;20052;-79
2022/03/27 05:40:35;;;;;;;63.25;11.95;;;;;;;0.39;53.59;103257.13;5027005;28;20036;-80
2022/03/27 05:43:01;;;;;;;46.80;12.88;;;;;;;0.73;54.14;103261.06;5037663;28;20052;-82
2022/03/27 05:45:27;;;;;;;27.55;9.13;;;;;;;0.93;53.80;103260.97;5040701;28;20361;-79
2022/03/27 05:47:53;;;;;;;14.88;4.72;;;;;;;0.93;53.23;103261.84;5036549;28;20048;-79
2022/03/27 05:50:22;;;;;;;13.30;3.85;;;;;;;1.09;53.71;103269.31;5040156;28;20123;-80
2022/03/27 05:52:49;;;;;;;14.23;2.80;;;;;;;1.32;53.06;103271.88;5022440;28;20040;-79
2022/03/27 05:55:15;;;;;;;12.00;3.33;;;;;;;1.51;52.56;103270.91;5039831;28;20044;-79
2022/03/27 05:57:42;;;;;;;13.95;3.15;;;;;;;1.64;52.75;103272.19;5037019;28;20037;-80
2022/03/27 06:00:09;;;;;;;11.93;2.47;;;;;;;1.72;51.34;103274.22;5040322;28;20025;-80
2022/03/27 06:02:35;;;;;;;11.02;3.15;;;;;;;1.89;51.08;103274.81;5037686;28;20467;-79
2022/03/27 06:05:01;;;;;;;15.52;2.28;;;;;;;2.16;50.72;103271.44;5023023;28;20106;-85
2022/03/27 06:07:26;;;;;;;8.43;1.88;;;;;;;2.46;51.15;103270.69;5023526;28;20045;-82
2022/03/27 06:09:52;;;;;;;5.57;2.10;;;;;;;2.72;50.76;103264.63;5026865;28;20039;-81
2022/03/27 06:12:18;;;;;;;9.60;1.95;;;;;;;2.78;49.30;103271.72;5021281;28;20064;-77
2022/03/27 06:14:44;;;;;;;9.85;2.08;;;;;;;3.16;49.68;103275.44;5037120;28;20033;-83
2022/03/27 06:17:10;;;;;;;10.15;1.50;;;;;;;3.42;48.18;103269.31;5041928;28;20040;-83
2022/03/27 06:19:35;;;;;;;14.48;1.95;;;;;;;4.05;49.02;103273.56;5020412;28;20101;-83
2022/03/27 06:22:01;;;;;;;8.15;2.33;;;;;;;4.58;46.94;103271.44;5038670;28;20758;-81
2022/03/27 06:24:27;;;;;;;14.77;2.25;;;;;;;5.16;48.25;103272.75;5042329;28;20033;-78
2022/03/27 06:26:53;;;;;;;15.73;3.88;;;;;;;5.51;45.58;103277.81;5021451;28;20076;-84
2022/03/27 06:29:20;;;;;;;13.50;2.92;;;;;;;6.00;42.55;103280.44;5023298;28;20123;-79
2022/03/27 06:31:46;;;;;;;10.30;2.38;;;;;;;6.43;43.60;103279.47;5038290;28;20044;-83
2022/03/27 06:34:12;;;;;;;8.32;3.10;;;;;;;7.14;42.61;103280.47;5017383;28;20065;-81
2022/03/27 06:36:41;;;;;;;12.30;2.53;;;;;;;7.95;41.59;103275.34;5021498;28;20617;-83
2022/03/27 06:39:07;;;;;;;10.27;1.95;;;;;;;8.87;38.23;103270.81;5022386;28;20132;-81
2022/03/27 06:41:34;;;;;;;12.35;1.70;;;;;;;9.72;36.35;103268.53;5043142;28;20037;-79
2022/03/27 06:44:00;;;;;;;9.32;1.73;;;;;;;10.41;35.82;103265.97;5020741;28;20060;-82
2022/03/27 06:46:27;;;;;;;5.88;1.25;;;;;;;10.41;36.44;103272.09;5021874;28;20132;-82
2022/03/27 06:48:53;;;;;;;8.73;2.60;;;;;;;10.56;33.93;103268.56;5040496;28;20511;-82
2022/03/27 06:51:19;;;;;;;7.97;1.83;;;;;;;10.00;33.52;103266.84;5025400;28;20043;-83
2022/03/27 06:53:47;;;;;;;9.68;2.15;;;;;;;10.32;35.63;103272.06;5020860;28;20128;-83
2022/03/27 06:56:13;;;;;;;8.43;2.13;;;;;;;8.88;36.11;103272.59;5038161;28;20044;-84
2022/03/27 06:58:39;;;;;;;8.25;2.25;;;;;;;8.54;38.49;103276.69;5025192;28;20040;-86
2022/03/27 07:03:49;;;;;;;7.47;2.25;;;;;;;8.98;38.58;103279.59;5025165;28;20099;-83
2022/03/27 07:06:15;;;;;;;8.60;2.55;;;;;;;8.50;37.91;103283.63;5023062;28;20159;-84
2022/03/27 07:08:41;;;;;;;8.88;2.45;;;;;;;8.04;40.54;103291.03;5038600;28;20032;-81
2022/03/27 07:11:07;;;;;;;8.48;2.80;;;;;;;8.20;41.91;103291.19;5022474;28;20036;-85
2022/03/27 07:13:34;;;;;;;8.82;2.53;;;;;;;8.40;41.52;103284.38;5025282;28;20051;-84
2022/03/27 07:15:59;;;;;;;8.75;2.42;;;;;;;8.20;40.38;103291.19;5022129;28;20036;-83
2022/03/27 07:18:25;;;;;;;14.07;2.60;;;;;;;8.19;42.55;103310.28;5043686;28;20087;-85
2022/03/27 07:20:51;;;;;;;14.82;2.78;;;;;;;7.88;43.03;103299.56;5042550;28;20032;-83
2022/03/27 07:23:19;;;;;;;13.52;2.83;;;;;;;8.02;44.50;103292.75;5023231;28;20501;-81
2022/03/27 07:25:47;;;;;;;16.42;2.95;;;;;;;8.44;43.74;103291.38;5003372;28;20044;-79
2022/03/27 07:28:14;;;;;;;13.45;3.08;;;;;;;8.91;43.17;103293.47;5023281;28;20032;-80
2022/03/27 07:30:41;;;;;;;13.63;3.50;;;;;;;8.74;42.88;103295.13;5021027;28;20037;-81
2022/03/27 07:33:07;;;;;;;26.50;3.20;;;;;;;9.47;43.73;103299.78;5038356;28;20754;-79
2022/03/27 07:35:32;;;;;;;13.68;3.03;;;;;;;10.52;39.97;103290.34;5036254;28;20021;-80
2022/03/27 07:37:59;;;;;;;17.75;3.28;;;;;;;10.87;39.11;103292.06;5022020;28;20052;-79
2022/03/27 07:40:24;;;;;;;17.38;3.10;;;;;;;10.97;39.43;103292.91;5021996;28;20040;-82
2022/03/27 07:42:54;;;;;;;18.35;2.65;;;;;;;11.39;40.27;103301.47;5019089;28;20147;-80
2022/03/27 07:45:23;;;;;;;10.13;2.20;;;;;;;12.13;37.01;103301.88;5043192;28;20131;-82
2022/03/27 07:47:50;;;;;;;14.35;2.92;;;;;;;13.01;35.34;103294.06;5019531;28;20122;-83
2022/03/27 07:50:18;;;;;;;22.27;4.43;;;;;;;12.14;35.99;103292.31;5024226;28;20032;-80
2022/03/27 07:52:47;;;;;;;23.58;3.85;;;;;;;11.32;37.56;103300.63;5004210;28;20687;-79
2022/03/27 07:55:15;;;;;;;11.63;2.75;;;;;;;11.58;38.99;103297.03;5022157;28;20033;-80
2022/03/27 07:57:42;;;;;;;17.48;4.20;;;;;;;13.08;36.55;103289.63;5017691;28;20047;-79
2022/03/27 08:00:10;;;;;;;16.25;4.43;;;;;;;16.02;30.61;103286.94;5036618;28;20072;-78
2022/03/27 08:02:40;;;;;;;22.25;2.20;;;;;;;17.23;27.78;103283.66;5022536;28;20044;-81
2022/03/27 08:05:07;;;;;;;28.25;4.05;;;;;;;14.54;30.79;103290.06;4997329;28;20108;-78
2022/03/27 08:07:33;;;;;;;18.73;3.25;;;;;;;13.49;33.02;103296.06;5039401;28;20076;-79
2022/03/27 08:10:00;;;;;;;20.50;3.53;;;;;;;15.33;30.05;103281.50;5036929;28;20540;-81
2022/03/27 08:12:27;;;;;;;19.85;3.45;;;;;;;16.11;28.92;103286.72;5021233;28;20371;-78
2022/03/27 08:14:53;;;;;;;18.75;3.28;;;;;;;16.92;27.38;103270.47;5019784;28;20091;-79
2022/03/27 08:17:20;;;;;;;22.95;3.33;;;;;;;16.30;27.84;103281.84;5019640;28;20037;-78
2022/03/27 08:19:47;;;;;;;17.98;2.75;;;;;;;15.12;30.11;103278.38;5038506;28;20307;-79
2022/03/27 08:22:13;;;;;;;21.65;4.22;;;;;;;14.97;30.22;103276.09;5036814;28;20048;-79
2022/03/27 08:24:40;;;;;;;21.85;4.00;;;;;;;14.40;30.56;103268.38;5017957;28;20029;-79
2022/03/27 08:27:07;;;;;;;14.07;2.35;;;;;;;13.40;33.10;103280.44;5019068;28;20088;-79
2022/03/27 08:29:38;;;;;;;19.08;3.05;;;;;;;12.82;34.39;103282.03;5034518;28;20274;-77
2022/03/27 08:32:09;;;;;;;18.10;4.30;;;;;;;14.87;31.67;103266.63;5000251;28;20036;-80
2022/03/27 08:34:37;;;;;;;19.30;2.80;;;;;;;16.50;29.23;103262.81;5018513;28;20301;-79
2022/03/27 08:37:06;;;;;;;19.25;3.13;;;;;;;16.14;28.94;103262.91;5037450;28;20029;-80
2022/03/27 08:39:32;;;;;;;18.17;3.38;;;;;;;16.52;28.02;103261.00;5020990;28;20041;-79
2022/03/27 08:41:58;;;;;;;26.65;3.13;;;;;;;15.89;27.69;103262.63;4996760;28;20040;-78
2022/03/27 08:44:26;;;;;;;21.23;4.15;;;;;;;16.20;28.86;103262.75;4997331;28;20481;-79
2022/03/27 08:46:54;;;;;;;14.82;2.88;;;;;;;16.23;28.24;103267.94;4997175;28;20504;-77
2022/03/27 08:49:39;;;;;;;21.90;2.60;;;;;;;16.71;28.81;103266.63;5033851;28;20161;-78
2022/03/27 08:52:23;;;;;;;19.48;2.72;;;;;;;17.13;26.61;103268.97;5033153;28;20067;-78
2022/03/27 08:54:58;;;;;;;22.17;3.15;;;;;;;17.06;28.84;103264.78;5016636;28;20506;-78
2022/03/27 08:57:34;;;;;;;24.33;2.83;;;;;;;16.19;28.00;103274.19;5006042;28;20037;-81
2022/03/27 09:00:01;;;;;;;16.52;3.53;;;;;;;15.63;28.57;103273.78;5035107;28;20028;-79
2022/03/27 09:02:26;;;;;;;15.38;2.70;;;;;;;15.93;27.80;103269.53;5016380;28;20486;-80
2022/03/27 09:04:57;;;;;;;15.05;2.25;;;;;;;15.82;28.42;103269.81;5016165;28;20025;-79
2022/03/27 09:07:28;;;;;;;15.32;2.17;;;;;;;15.58;29.05;103271.25;5032541;28;20303;-78
2022/03/27 09:09:55;;;;;;;21.67;2.28;;;;;;;15.41;29.67;103274.28;5034339;28;20410;-80
2022/03/27 09:12:21;;;;;;;17.27;2.83;;;;;;;14.73;30.26;103278.31;5031627;28;20044;-80
2022/03/27 09:14:48;;;;;;;13.73;2.22;;;;;;;14.30;29.56;103273.81;5045967;28;20067;-79
2022/03/27 09:17:14;;;;;;;12.10;2.22;;;;;;;14.48;31.03;103282.31;5033516;28;20044;-78
2022/03/27 09:19:51;;;;;;;16.20;3.05;;;;;;;14.54;30.75;103279.53;5037375;28;20489;-77
2022/03/27 09:22:22;;;;;;;15.98;2.17;;;;;;;15.53;28.75;103274.00;5004211;28;20072;-79
2022/03/27 09:24:57;;;;;;;23.23;3.30;;;;;;;14.59;30.87;103277.72;5020422;28;20048;-80
2022/03/27 09:27:34;;;;;;;17.75;3.30;;;;;;;14.52;30.78;103273.44;5042655;28;20045;-78
2022/03/27 09:30:06;;;;;;;17.08;3.00;;;;;;;15.07;30.11;103280.25;5038435;28;20083;-78
2022/03/27 09:32:38;;;;;;;16.45;1.90;;;;;;;14.95;29.78;103277.88;5038050;28;20037;-80
2022/03/27 09:35:08;;;;;;;19.98;2.58;;;;;;;14.95;30.48;103280.50;5006788;28;20083;-79
2022/03/27 09:37:37;;;;;;;9.10;2.33;;;;;;;14.68;30.79;103282.78;5042819;28;20060;-77
2022/03/27 09:40:04;;;;;;;12.57;2.95;;;;;;;15.10;28.94;103276.69;5040073;28;20037;-77
2022/03/27 09:42:30;;;;;;;14.15;2.38;;;;;;;14.92;30.10;103276.16;5027346;28;20041;-79
2022/03/27 09:45:28;;;;;;;18.05;2.83;;;;;;;15.62;28.50;103274.69;5021389;28;20036;-80
2022/03/27 09:48:07;;;;;;;19.67;3.25;;;;;;;14.99;29.85;103271.63;4975805;28;20087;-80
2022/03/27 09:50:34;;;;;;;20.40;2.20;;;;;;;15.08;29.36;103271.47;5020597;28;20071;-80
2022/03/27 09:53:22;;;;;;;21.73;3.28;;;;;;;14.75;31.41;103279.13;5021372;28;20138;-80
2022/03/27 09:55:53;;;;;;;16.85;2.40;;;;;;;14.49;30.81;103268.25;5036780;28;20969;-80
2022/03/27 09:58:37;;;;;;;24.25;2.33;;;;;;;14.97;29.20;103265.56;5023116;28;20040;-78
2022/03/27 10:01:11;;;;;;;11.05;2.13;;;;;;;15.61;28.78;103265.91;5021108;28;20542;-78
2022/03/27 10:03:56;;;;;;;14.00;2.08;;;;;;;15.80;28.16;103266.34;5036776;28;20036;-80
2022/03/27 10:06:34;;;;;;;11.25;1.90;;;;;;;15.63;27.92;103263.25;5006685;28;20365;-79
2022/03/27 10:09:01;;;;;;;13.07;2.58;;;;;;;15.59;27.30;103258.06;5037321;28;20036;-80
2022/03/27 10:11:28;;;;;;;18.55;2.00;;;;;;;14.86;28.36;103247.34;5038297;28;20081;-81
2022/03/27 10:13:54;;;;;;;15.48;1.83;;;;;;;15.34;29.22;103256.88;5003899;28;20033;-77
2022/03/27 10:16:36;;;;;;;13.05;2.85;;;;;;;15.29;27.63;103242.94;5005679;28;20037;-80
2022/03/27 10:19:08;;;;;;;11.25;1.88;;;;;;;15.07;28.79;103247.78;5038390;28;20040;-80
2022/03/27 10:21:35;;;;;;;9.88;2.05;;;;;;;15.15;28.78;103244.09;5025394;28;20029;-78
2022/03/27 10:24:15;;;;;;;16.63;2.63;;;;;;;15.13;27.91;103243.25;5020611;28;20122;-80
2022/03/27 10:26:43;;;;;;;17.48;2.08;;;;;;;15.48;27.36;103246.00;5022284;28;20037;-80
2022/03/27 10:29:10;;;;;;;14.95;2.03;;;;;;;15.64;28.33;103234.22;5016061;28;20048;-79
2022/03/27 10:31:37;;;;;;;12.32;1.52;;;;;;;14.69;26.97;103223.97;5036880;28;20032;-79
2022/03/27 10:34:05;;;;;;;9.57;1.95;;;;;;;14.96;25.88;103224.31;5026107;28;20037;-83
2022/03/27 10:36:49;;;;;;;7.28;1.65;;;;;;;14.87;27.39;103230.63;5038167;28;20032;-77
2022/03/27 10:39:36;;;;;;;11.77;2.28;;;;;;;14.71;27.66;103230.06;5021767;28;20314;-80
2022/03/27 10:42:23;;;;;;;8.25;1.63;;;;;;;14.88;27.33;103226.22;5040375;28;20108;-80
2022/03/27 10:44:55;;;;;;;11.82;2.03;;;;;;;15.11;28.08;103234.50;5041112;28;20035;-77
2022/03/27 10:47:25;;;;;;;12.10;2.08;;;;;;;15.51;27.64;103228.38;4994104;28;20051;-79
2022/03/27 10:50:00;;;;;;;11.75;1.95;;;;;;;15.78;28.19;103231.25;5002081;28;20039;-81
2022/03/27 10:52:26;;;;;;;17.52;2.83;;;;;;;16.02;27.61;103229.78;5037928;28;20626;-81
2022/03/27 10:55:06;;;;;;;10.60;1.83;;;;;;;15.71;28.69;103224.41;5019707;28;20040;-77
2022/03/27 10:57:42;;;;;;;12.02;2.25;;;;;;;16.04;28.20;103212.16;5037083;28;20550;-78
2022/03/27 11:00:10;;;;;;;13.88;1.80;;;;;;;15.88;28.06;103222.19;5021883;28;20036;-81
2022/03/27 11:02:46;;;;;;;13.50;2.75;;;;;;;16.10;27.12;103219.03;5021426;28;20110;-80
2022/03/27 11:05:31;;;;;;;17.15;2.20;;;;;;;16.05;27.46;103216.50;5005735;28;20276;-79
2022/03/27 11:08:15;;;;;;;9.05;1.92;;;;;;;15.73;25.21;103220.81;5041141;28;20045;-79
2022/03/27 11:10:43;;;;;;;7.72;0.88;;;;;;;15.43;26.83;103222.41;5040216;28;20036;-81
2022/03/27 11:13:26;;;;;;;19.60;1.88;;;;;;;15.55;26.99;103224.75;5028338;28;20065;-79
2022/03/27 11:16:07;;;;;;;11.23;1.58;;;;;;;15.34;26.42;103218.22;5027162;28;20441;-80
2022/03/27 11:18:52;;;;;;;14.15;1.23;;;;;;;15.07;27.60;103214.41;5024165;28;20051;-80
2022/03/27 11:21:27;;;;;;;14.75;2.20;;;;;;;14.91;27.75;103215.66;5014534;28;20040;-81
2022/03/27 11:23:55;;;;;;;13.93;1.90;;;;;;;15.07;27.01;103217.03;5036137;28;20041;-75
2022/03/27 11:26:20;;;;;;;7.80;1.70;;;;;;;15.00;27.98;103210.19;5021894;28;20510;-81
2022/03/27 11:28:55;;;;;;;10.82;1.17;;;;;;;15.13;27.81;103205.50;5021316;28;20049;-80
2022/03/27 11:31:33;;;;;;;8.02;1.42;;;;;;;14.90;27.38;103206.88;5038444;28;20033;-79
2022/03/27 11:34:04;;;;;;;11.82;1.60;;;;;;;15.41;27.51;103210.16;5036277;28;20303;-80